Time;durP1;ratioP1;P1;durP2;ratioP2;P2;SDS_P1;SDS_P2;PMS_P1;PMS_P2;Temp;Humidity;BMP_temperature;BMP_pressure;BME280_temperature;BME280_humidity;BME280_pressure;Samples;Min_cycle;Max_cycle;Signal;HPM_P1;HPM_P2
2021/06/13 00:00:45;;;;;;;9.03;5.75;;;;;;;14.75;82.11;98928.36;4123860;84;21455;-76
2021/06/13 00:07:06;;;;;;;17.75;6.47;;;;;;;14.68;82.34;98935.31;4162865;83;21091;-76
2021/06/13 00:13:15;;;;;;;16.30;6.80;;;;;;;14.66;82.35;98942.42;4149843;83;21082;-76
2021/06/13 00:19:40;;;;;;;11.28;5.78;;;;;;;14.58;82.52;98922.98;4171490;83;21149;-76
2021/06/13 00:25:41;;;;;;;11.75;5.80;;;;;;;14.52;82.70;98923.99;4163644;83;21071;-77
2021/06/13 00:32:09;;;;;;;17.23;5.83;;;;;;;14.51;82.72;98927.95;4183157;83;20976;-76
2021/06/13 00:38:10;;;;;;;15.48;6.12;;;;;;;14.57;82.91;98922.78;4176969;83;21063;-77
2021/06/13 00:44:12;;;;;;;11.12;5.55;;;;;;;14.61;83.01;98927.70;4187101;83;21070;-77
2021/06/13 00:50:34;;;;;;;12.95;5.28;;;;;;;14.61;83.49;98932.59;4186773;83;21106;-77
2021/06/13 00:56:51;;;;;;;13.40;5.40;;;;;;;14.54;83.31;98928.52;4184279;83;21277;-77
2021/06/13 01:02:52;;;;;;;8.58;5.72;;;;;;;14.52;83.47;98928.73;4191584;83;21020;-76
2021/06/13 01:09:08;;;;;;;8.25;5.22;;;;;;;14.51;83.57;98922.44;4168248;83;21063;-77
2021/06/13 01:15:31;;;;;;;7.87;5.80;;;;;;;14.51;83.59;98919.68;4155216;84;21147;-77
2021/06/13 01:21:48;;;;;;;16.30;5.95;;;;;;;14.49;83.64;98919.88;4153667;84;21298;-78
2021/06/13 01:28:41;;;;;;;14.07;7.35;;;;;;;14.44;83.86;98915.58;4032167;86;21129;-76
2021/06/13 01:34:49;;;;;;;10.68;7.00;;;;;;;14.41;83.73;98908.73;4032963;86;21095;-76
2021/06/13 01:40:54;;;;;;;16.40;6.97;;;;;;;14.35;84.04;98904.81;4157926;84;21039;-77
2021/06/13 01:47:00;;;;;;;8.83;6.05;;;;;;;14.34;84.21;98896.36;4153941;84;21505;-77
2021/06/13 01:53:11;;;;;;;12.03;7.62;;;;;;;14.34;84.26;98905.42;4156679;84;21119;-77
2021/06/13 01:59:16;;;;;;;9.83;7.25;;;;;;;14.28;84.30;98914.50;4152059;84;21028;-77
2021/06/13 02:05:23;;;;;;;10.13;7.10;;;;;;;14.25;84.55;98905.66;4157498;83;21086;-76
2021/06/13 02:11:28;;;;;;;9.20;6.65;;;;;;;14.22;84.52;98911.94;4188217;83;21082;-77
2021/06/13 02:17:37;;;;;;;9.48;7.97;;;;;;;14.17;84.72;98918.04;4185653;83;21132;-77
2021/06/13 02:23:43;;;;;;;7.50;6.55;;;;;;;14.15;84.80;98920.43;4180017;83;21030;-78
2021/06/13 02:29:46;;;;;;;9.28;5.97;;;;;;;14.15;84.88;98921.02;4185637;83;21075;-77
2021/06/13 02:35:53;;;;;;;10.48;7.08;;;;;;;14.11;84.67;98919.64;4185462;83;21066;-76
2021/06/13 02:41:55;;;;;;;14.20;6.83;;;;;;;14.00;84.60;98936.03;4185700;83;21055;-75
2021/06/13 02:47:57;;;;;;;7.50;5.42;;;;;;;13.91;84.79;98952.95;4187541;83;21023;-75
2021/06/13 02:54:03;;;;;;;12.13;5.67;;;;;;;13.84;84.75;98952.19;4186422;83;21059;-76
2021/06/13 03:00:09;;;;;;;6.92;5.72;;;;;;;13.77;84.75;98975.58;4185985;83;21048;-75
2021/06/13 03:06:20;;;;;;;8.68;5.05;;;;;;;13.65;84.62;98983.67;4180585;83;21091;-76
2021/06/13 03:12:24;;;;;;;7.40;4.62;;;;;;;13.58;84.74;98995.25;4154405;84;21017;-78
2021/06/13 03:18:29;;;;;;;6.83;4.20;;;;;;;13.57;84.64;99004.11;4150692;84;21049;-78
2021/06/13 03:24:35;;;;;;;8.48;4.50;;;;;;;13.52;84.53;99018.25;4153807;84;21655;-78
2021/06/13 03:30:37;;;;;;;6.55;4.15;;;;;;;13.52;84.42;99039.45;4154838;84;21048;-78
2021/06/13 03:36:41;;;;;;;5.97;2.75;;;;;;;13.44;84.23;99038.67;4149606;84;21028;-77
2021/06/13 03:42:43;;;;;;;5.42;2.77;;;;;;;13.35;84.07;99053.41;4131827;84;21547;-77
2021/06/13 03:48:47;;;;;;;9.18;3.10;;;;;;;13.30;83.95;99055.73;4146192;84;21047;-77
2021/06/13 03:54:49;;;;;;;9.15;3.00;;;;;;;13.31;84.23;99054.58;4129041;84;21092;-77
2021/06/13 04:00:53;;;;;;;3.50;2.40;;;;;;;13.30;84.08;99073.61;4145841;84;21074;-77
2021/06/13 04:06:55;;;;;;;8.73;2.85;;;;;;;13.37;84.19;99083.26;4149952;84;21096;-77
2021/06/13 04:12:57;;;;;;;6.92;3.30;;;;;;;13.45;84.03;99081.48;4153984;84;21079;-77
2021/06/13 04:19:01;;;;;;;16.93;4.47;;;;;;;13.54;84.07;99082.48;4152661;84;21040;-77
2021/06/13 04:25:03;;;;;;;6.83;3.17;;;;;;;13.58;83.88;99092.88;4153992;84;21056;-77
2021/06/13 04:31:13;;;;;;;5.20;3.50;;;;;;;13.60;83.85;99098.79;4155926;84;21829;-75
2021/06/13 04:37:16;;;;;;;5.67;4.08;;;;;;;13.60;83.94;99092.70;4161020;84;21110;-75
2021/06/13 04:43:20;;;;;;;8.83;4.53;;;;;;;13.60;83.85;99096.84;4156042;84;21597;-75
2021/06/13 04:49:21;;;;;;;6.30;3.67;;;;;;;13.69;83.83;99092.30;4156256;84;21048;-77
2021/06/13 04:55:43;;;;;;;11.75;4.17;;;;;;;13.74;83.78;99097.41;4161482;84;21015;-77
2021/06/13 05:01:45;;;;;;;7.15;4.35;;;;;;;13.77;83.44;99093.87;4161980;84;21083;-77
2021/06/13 05:07:46;;;;;;;8.15;4.65;;;;;;;13.82;83.31;99097.62;4163039;83;21701;-77
2021/06/13 05:13:47;;;;;;;7.25;4.08;;;;;;;13.78;83.22;99102.34;4167077;84;21090;-78
2021/06/13 05:19:49;;;;;;;7.67;3.67;;;;;;;13.75;83.41;99101.15;4165131;84;21024;-77
2021/06/13 05:25:53;;;;;;;10.45;4.42;;;;;;;13.67;83.26;99109.81;4164263;84;21047;-77
2021/06/13 05:31:54;;;;;;;6.60;4.62;;;;;;;13.65;83.57;99116.28;4165844;84;21075;-78
2021/06/13 05:37:56;;;;;;;8.83;3.65;;;;;;;13.55;83.37;99131.59;4162179;84;21539;-78
2021/06/13 05:44:01;;;;;;;8.55;4.42;;;;;;;13.52;83.79;99140.63;4164096;84;21666;-77
2021/06/13 05:50:01;;;;;;;16.00;5.33;;;;;;;13.40;83.72;99133.34;4164482;84;21520;-78
2021/06/13 05:56:03;;;;;;;11.50;5.40;;;;;;;13.40;84.24;99140.22;4167756;84;21099;-78
2021/06/13 06:02:07;;;;;;;11.33;4.30;;;;;;;13.42;84.32;99145.52;4162981;84;21123;-76
2021/06/13 06:08:09;;;;;;;7.50;3.33;;;;;;;13.40;84.10;99150.64;4165870;83;21571;-77
2021/06/13 06:14:10;;;;;;;4.97;3.42;;;;;;;13.39;84.04;99175.77;4164766;84;21071;-78
2021/06/13 06:20:14;;;;;;;5.83;3.00;;;;;;;13.53;84.36;99169.70;4166408;84;21599;-77
2021/06/13 06:26:15;;;;;;;7.05;3.45;;;;;;;13.76;84.76;99170.73;4165464;84;21039;-78
2021/06/13 06:32:17;;;;;;;5.80;3.20;;;;;;;13.97;84.58;99172.10;4164430;84;21055;-78
2021/06/13 06:38:18;;;;;;;18.12;3.60;;;;;;;14.16;84.27;99175.84;4166621;84;22363;-78
2021/06/13 06:44:19;;;;;;;10.63;3.00;;;;;;;14.34;84.31;99178.63;4162339;84;21000;-76
2021/06/13 06:50:21;;;;;;;8.03;3.15;;;;;;;14.55;84.20;99180.75;4162697;84;21055;-75
2021/06/13 06:56:23;;;;;;;6.45;3.25;;;;;;;14.80;84.16;99173.81;4164029;84;21056;-76
2021/06/13 07:02:24;;;;;;;6.80;2.50;;;;;;;14.91;83.61;99182.84;4167697;84;21658;-75
2021/06/13 07:08:25;;;;;;;6.55;2.83;;;;;;;14.74;82.62;99189.95;4164381;83;21075;-76
2021/06/13 07:14:27;;;;;;;6.45;2.58;;;;;;;14.37;81.61;99199.28;4154562;84;21043;-76
2021/06/13 07:20:29;;;;;;;11.95;2.60;;;;;;;14.16;81.40;99196.48;4154281;84;21064;-77
2021/06/13 07:26:30;;;;;;;6.37;2.50;;;;;;;14.01;81.05;99202.60;4153660;84;21032;-76
2021/06/13 07:32:32;;;;;;;6.85;3.08;;;;;;;14.10;81.34;99205.75;4151002;84;21524;-76
2021/06/13 07:38:34;;;;;;;11.30;3.72;;;;;;;14.71;81.12;99218.89;4153587;84;21604;-76
2021/06/13 07:44:36;;;;;;;8.58;2.67;;;;;;;14.84;80.06;99214.55;4153534;84;21059;-76
2021/06/13 07:50:38;;;;;;;7.67;3.02;;;;;;;14.99;79.49;99220.20;4148218;84;21490;-77
2021/06/13 07:56:41;;;;;;;8.10;3.22;;;;;;;14.97;79.47;99228.87;4124155;84;21123;-76
2021/06/13 08:02:43;;;;;;;5.90;2.60;;;;;;;14.95;79.49;99225.75;4153444;84;21067;-76
2021/06/13 08:08:44;;;;;;;6.90;2.52;;;;;;;14.74;78.16;99232.67;4154984;84;21008;-76
2021/06/13 08:14:45;;;;;;;6.08;3.12;;;;;;;14.37;77.78;99249.43;4151916;84;21024;-76
2021/06/13 08:20:47;;;;;;;7.53;2.60;;;;;;;14.19;77.17;99251.56;4151625;84;21094;-77
2021/06/13 08:26:49;;;;;;;4.67;2.40;;;;;;;14.17;77.08;99254.52;4155469;84;21757;-76
2021/06/13 08:32:50;;;;;;;5.12;2.20;;;;;;;14.79;76.84;99256.28;4154314;84;21004;-76
2021/06/13 08:38:55;;;;;;;6.30;2.40;;;;;;;15.26;75.62;99255.77;4156762;84;21067;-76
2021/06/13 08:44:56;;;;;;;7.40;2.55;;;;;;;15.25;74.23;99269.37;4152563;84;21103;-76
2021/06/13 08:51:00;;;;;;;4.08;2.25;;;;;;;15.12;73.61;99280.62;4154125;84;21606;-78
2021/06/13 08:57:02;;;;;;;7.85;1.80;;;;;;;15.04;73.42;99279.06;4155707;84;22367;-77
2021/06/13 09:03:06;;;;;;;8.18;2.12;;;;;;;15.05;73.07;99282.80;4155727;84;21071;-77
2021/06/13 09:09:24;;;;;;;3.60;1.80;;;;;;;15.18;72.27;99285.34;4157230;84;21071;-76
2021/06/13 09:15:39;;;;;;;6.15;2.17;;;;;;;15.36;72.72;99292.19;4154653;84;21739;-76
2021/06/13 09:21:41;;;;;;;6.67;2.00;;;;;;;15.48;71.72;99284.87;4138944;84;21682;-76
2021/06/13 09:27:50;;;;;;;7.00;1.80;;;;;;;15.27;70.54;99304.21;4136833;84;21060;-77
2021/06/13 09:33:56;;;;;;;5.03;1.80;;;;;;;15.10;70.08;99310.56;4147350;84;21040;-77
2021/06/13 09:40:10;;;;;;;7.42;2.35;;;;;;;15.25;69.92;99314.87;4135703;84;21040;-76
2021/06/13 09:46:15;;;;;;;4.37;2.27;;;;;;;15.39;69.20;99319.77;4153613;84;21052;-77
2021/06/13 09:52:27;;;;;;;5.42;2.05;;;;;;;15.41;69.11;99323.54;4153320;84;21070;-77
2021/06/13 09:58:29;;;;;;;4.70;2.25;;;;;;;15.39;68.72;99336.94;4153689;84;21000;-77
2021/06/13 10:04:36;;;;;;;5.20;1.87;;;;;;;15.47;68.05;99333.73;4153942;84;21008;-77
2021/06/13 10:11:02;;;;;;;6.92;1.92;;;;;;;15.66;67.81;99333.86;4117297;84;21018;-77
2021/06/13 10:17:10;;;;;;;5.73;1.80;;;;;;;15.73;67.38;99344.09;4091841;86;21017;-78
2021/06/13 10:23:17;;;;;;;5.53;1.95;;;;;;;15.76;66.42;99349.61;4076882;86;21070;-77
2021/06/13 10:29:31;;;;;;;;;;;;;;;16.15;66.56;99359.88;4089284;84;21005;-77
2021/06/13 10:35:39;;;;;;;5.00;2.08;;;;;;;16.28;65.13;99371.25;4083340;86;20195;-78
2021/06/13 10:41:47;;;;;;;5.42;1.80;;;;;;;16.19;66.23;99370.91;4088570;86;20996;-78
2021/06/13 10:54:35;;;;;;;6.58;2.05;;;;;;;16.14;65.38;99370.73;4074260;86;21620;-78
2021/06/13 11:00:41;;;;;;;7.30;1.80;;;;;;;16.46;65.20;99363.67;4079469;86;21024;-77
2021/06/13 11:06:48;;;;;;;7.33;1.98;;;;;;;16.71;64.46;99363.67;4076093;86;21088;-77
2021/06/13 11:13:01;;;;;;;5.58;1.80;;;;;;;16.85;63.56;99364.94;4165527;83;21432;-79
2021/06/13 11:19:31;;;;;;;3.58;1.75;;;;;;;16.87;63.02;99372.83;4184430;83;21189;-78
2021/06/13 11:25:38;;;;;;;4.40;1.98;;;;;;;16.68;62.75;99371.40;4174189;83;21368;-78
2021/06/13 11:31:43;;;;;;;;;;;;;;;16.51;62.20;99373.69;4186409;83;21020;-77
2021/06/13 11:37:45;;;;;;;6.47;1.82;;;;;;;16.41;61.20;99376.50;4184256;83;20155;-78
2021/06/13 11:43:47;;;;;;;6.47;2.22;;;;;;;16.58;62.34;99375.05;4185058;83;21110;-79
2021/06/13 11:49:48;;;;;;;7.05;2.55;;;;;;;17.10;61.68;99364.12;4186714;83;21078;-78
2021/06/13 11:55:52;;;;;;;6.83;2.40;;;;;;;17.30;61.54;99375.41;4184525;83;21059;-78
2021/06/13 12:01:57;;;;;;;3.98;2.05;;;;;;;17.50;61.29;99381.16;4186419;83;21051;-78
2021/06/13 12:08:06;;;;;;;5.15;2.10;;;;;;;17.60;60.51;99380.27;4187849;83;20999;-78
2021/06/13 12:14:53;;;;;;;5.90;2.35;;;;;;;17.68;60.67;99376.99;4188712;83;21112;-79
2021/06/13 12:21:05;;;;;;;;;;;;;;;;;;;;;
2021/06/13 12:27:23;;;;;;;9.88;1.65;;;;;;;17.92;59.73;99383.44;4185629;83;21062;-79
2021/06/13 12:33:46;;;;;;;8.18;2.05;;;;;;;17.77;58.97;99389.77;4185462;83;21095;-79
2021/06/13 12:40:10;;;;;;;4.15;1.75;;;;;;;17.47;58.74;99395.23;4166935;83;21075;-78
2021/06/13 12:46:21;;;;;;;4.33;2.02;;;;;;;17.51;59.24;99391.81;4187263;83;21554;-78
2021/06/13 12:52:37;;;;;;;4.42;2.12;;;;;;;17.55;58.59;99393.17;4187263;83;21481;-79
2021/06/13 12:58:53;;;;;;;5.37;2.02;;;;;;;17.65;58.81;99401.35;4162383;83;21114;-80
2021/06/13 13:05:18;;;;;;;;;;;;;;;;;;;;;
2021/06/13 13:11:29;;;;;;;5.83;2.05;;;;;;;17.80;57.69;99400.02;4177988;83;21096;-78
2021/06/13 13:17:43;;;;;;;5.00;2.40;;;;;;;17.68;57.53;99402.53;4198012;85;21067;-78
2021/06/13 13:30:22;;;;;;;5.92;1.82;;;;;;;18.14;57.25;99398.59;4190024;83;21054;-78
2021/06/13 13:36:48;;;;;;;9.35;2.33;;;;;;;18.31;56.40;99403.12;4186910;82;21079;-78
2021/06/13 13:43:15;;;;;;;5.37;1.98;;;;;;;17.83;55.16;99408.88;4191366;83;21058;-79
2021/06/13 13:49:35;;;;;;;7.70;2.03;;;;;;;17.40;56.18;99407.72;4192470;83;21094;-80
2021/06/13 13:55:57;;;;;;;5.65;2.00;;;;;;;17.38;56.22;99407.36;4189316;83;21074;-79
2021/06/13 14:02:03;;;;;;;6.58;2.20;;;;;;;17.36;55.94;99406.97;4186328;83;21583;-79
2021/06/13 14:08:11;;;;;;;5.37;1.72;;;;;;;17.18;55.87;99421.55;4180195;83;21059;-78
2021/06/13 14:14:25;;;;;;;6.72;2.10;;;;;;;17.05;56.06;99430.94;4137951;84;21604;-79
2021/06/13 14:20:43;;;;;;;7.30;1.98;;;;;;;16.99;55.65;99425.66;4156756;84;21628;-78
2021/06/13 14:26:40;;;;;;;6.55;1.77;;;;;;;16.99;56.00;99417.98;4150401;84;21063;-78
2021/06/13 14:32:44;;;;;;;4.17;1.90;;;;;;;17.15;56.11;99421.78;4158435;84;21027;-78
2021/06/13 14:38:49;;;;;;;6.67;2.12;;;;;;;17.45;56.53;99416.20;4156046;84;21039;-78
2021/06/13 14:44:58;;;;;;;5.47;1.82;;;;;;;17.69;56.10;99413.78;4156982;84;21064;-79
2021/06/13 14:51:10;;;;;;;5.08;1.60;;;;;;;17.50;56.02;99414.37;4158101;84;21008;-77
2021/06/13 14:57:14;;;;;;;5.22;2.45;;;;;;;17.33;55.26;99413.92;4148399;84;21157;-81
2021/06/13 15:03:35;;;;;;;5.47;1.90;;;;;;;17.24;55.61;99416.56;4151577;84;21127;-80
2021/06/13 15:09:34;;;;;;;7.90;2.30;;;;;;;17.10;55.27;99420.06;4154587;83;21031;-79
2021/06/13 15:15:46;;;;;;;4.78;2.05;;;;;;;17.10;55.50;99423.59;4184764;83;21107;-80
2021/06/13 15:22:03;;;;;;;5.47;2.10;;;;;;;16.90;55.13;99421.20;4184684;83;21042;-78
2021/06/13 15:28:11;;;;;;;10.58;1.90;;;;;;;16.73;55.39;99426.84;4187934;83;21163;-79
2021/06/13 15:34:36;;;;;;;6.78;2.12;;;;;;;16.62;55.41;99420.59;4186834;83;21422;-79
2021/06/13 15:40:54;;;;;;;;;;;;;;;;;;;;;
2021/06/13 15:47:01;;;;;;;4.53;1.72;;;;;;;16.49;55.16;99411.99;4182158;83;21465;-77
2021/06/13 15:53:08;;;;;;;8.05;2.67;;;;;;;16.35;55.37;99415.42;4191072;83;21027;-78
2021/06/13 15:59:29;;;;;;;4.50;1.98;;;;;;;16.23;55.50;99418.03;4184874;83;21015;-79
2021/06/13 16:05:37;;;;;;;7.28;2.25;;;;;;;16.10;55.34;99420.28;4184506;83;21059;-79
2021/06/13 16:11:41;;;;;;;8.95;2.12;;;;;;;16.14;55.60;99421.83;4172518;82;20993;-79
2021/06/13 16:17:51;;;;;;;7.40;2.08;;;;;;;16.34;55.56;99435.93;4159338;84;21083;-79
2021/06/13 16:23:58;;;;;;;8.43;2.10;;;;;;;16.50;55.64;99433.52;4153440;84;21012;-79
2021/06/13 16:30:07;;;;;;;8.90;2.00;;;;;;;16.50;55.31;99427.98;4147388;84;20996;-78
2021/06/13 16:36:12;;;;;;;;;;;;;;;16.45;55.32;99420.11;4157649;84;20992;-79
2021/06/13 16:42:26;;;;;;;6.30;2.10;;;;;;;16.40;55.78;99428.20;4153927;84;20210;-78
2021/06/13 16:48:35;;;;;;;7.35;2.65;;;;;;;16.37;55.82;99434.53;4156917;84;21151;-77
2021/06/13 16:54:41;;;;;;;4.58;1.85;;;;;;;16.29;55.76;99436.34;4157264;84;21075;-78
2021/06/13 17:00:43;;;;;;;8.53;2.35;;;;;;;16.20;56.10;99449.81;4158671;84;21027;-78
2021/06/13 17:06:48;;;;;;;6.70;2.40;;;;;;;16.13;56.33;99467.80;4157827;84;21040;-77
2021/06/13 17:12:57;;;;;;;6.90;2.15;;;;;;;16.03;56.31;99460.33;4044045;81;10000361;-77
2021/06/13 17:19:06;;;;;;;6.03;2.15;;;;;;;15.90;56.41;99471.60;4168654;84;21099;-81
2021/06/13 17:25:16;;;;;;;9.28;2.15;;;;;;;15.73;56.89;99473.23;4159981;84;21516;-79
2021/06/13 17:31:26;;;;;;;7.08;2.25;;;;;;;15.64;56.85;99483.91;4168790;84;21366;-77
2021/06/13 17:37:35;;;;;;;7.00;2.17;;;;;;;15.55;56.91;99483.53;4145624;84;21004;-78
2021/06/13 17:50:09;;;;;;;6.15;2.05;;;;;;;15.39;57.96;99492.80;4150911;84;21040;-79
2021/06/13 17:56:16;;;;;;;4.83;2.10;;;;;;;15.28;58.10;99497.48;4166920;84;20992;-78
2021/06/13 18:02:27;;;;;;;6.90;1.87;;;;;;;15.16;58.55;99491.77;4160698;84;21125;-79
2021/06/13 18:08:36;;;;;;;7.37;2.08;;;;;;;15.05;58.92;99510.27;4141993;84;21027;-78
2021/06/13 18:14:47;;;;;;;6.92;2.10;;;;;;;14.92;59.00;99512.42;4157619;84;21012;-80
2021/06/13 18:20:54;;;;;;;7.17;2.30;;;;;;;14.81;59.47;99519.30;4154822;84;21032;-79
2021/06/13 18:27:07;;;;;;;7.75;2.22;;;;;;;14.64;59.71;99525.55;4154608;84;21577;-80
2021/06/13 18:33:18;;;;;;;9.60;2.20;;;;;;;14.52;59.97;99534.75;4145792;84;21064;-78
2021/06/13 18:39:22;;;;;;;14.40;2.77;;;;;;;14.35;60.35;99540.38;4154112;84;21000;-78
2021/06/13 18:45:30;;;;;;;7.80;2.90;;;;;;;14.20;60.55;99546.97;4155087;84;21020;-78
2021/06/13 18:51:50;;;;;;;;;;;;;;;;;;;;;
2021/06/13 18:57:46;;;;;;;8.80;2.80;;;;;;;13.96;61.36;99555.28;4152539;84;21083;-79
2021/06/13 19:04:00;;;;;;;7.75;2.02;;;;;;;13.89;61.67;99559.34;4152269;84;22017;-78
2021/06/13 19:10:04;;;;;;;8.08;2.62;;;;;;;13.82;62.06;99572.27;4154623;84;21036;-78
2021/06/13 19:16:19;;;;;;;8.78;2.30;;;;;;;13.69;62.42;99573.16;4037850;84;9999717;-77
2021/06/13 19:22:26;;;;;;;7.33;2.20;;;;;;;13.57;62.71;99587.22;4161783;84;21056;-78
2021/06/13 19:28:33;;;;;;;6.47;2.20;;;;;;;13.44;63.29;99590.05;4159391;84;21015;-78
2021/06/13 19:34:40;;;;;;;11.33;2.40;;;;;;;13.34;63.93;99607.22;4137703;84;21789;-77
2021/06/13 19:40:43;;;;;;;8.03;2.40;;;;;;;13.34;64.17;99610.58;4152898;84;21044;-78
2021/06/13 19:46:50;;;;;;;7.95;2.62;;;;;;;13.27;64.36;99618.74;4156179;84;21069;-78
2021/06/13 19:53:02;;;;;;;12.30;2.65;;;;;;;13.19;64.57;99613.76;4157234;84;21438;-78
2021/06/13 19:59:07;;;;;;;9.38;2.70;;;;;;;13.07;65.18;99606.36;4160731;84;21024;-79
2021/06/13 20:05:21;;;;;;;8.68;2.65;;;;;;;12.94;65.26;99606.38;4157774;84;21544;-78
2021/06/13 20:11:27;;;;;;;10.55;3.02;;;;;;;12.85;65.73;99605.31;4157405;83;21047;-80
2021/06/13 20:17:33;;;;;;;9.18;2.65;;;;;;;12.81;65.89;99616.83;4185756;83;21524;-78
2021/06/13 20:23:41;;;;;;;9.48;2.70;;;;;;;12.78;66.43;99618.18;4191388;83;21071;-81
2021/06/13 20:29:56;;;;;;;12.47;2.70;;;;;;;12.77;66.71;99626.19;4191901;83;21111;-78
2021/06/13 20:36:07;;;;;;;7.25;2.70;;;;;;;12.65;67.74;99628.62;4166683;83;21512;-79
2021/06/13 20:42:10;;;;;;;7.75;2.70;;;;;;;12.47;67.83;99639.36;4192572;83;21078;-78
2021/06/13 20:48:18;;;;;;;8.00;3.00;;;;;;;12.47;68.32;99635.24;4184106;83;21019;-78
2021/06/13 20:54:29;;;;;;;7.97;3.02;;;;;;;12.48;68.62;99635.44;4188833;83;21078;-78
2021/06/13 21:00:36;;;;;;;7.65;3.22;;;;;;;12.51;68.50;99636.07;4191912;83;21043;-78
2021/06/13 21:06:41;;;;;;;7.50;2.85;;;;;;;12.54;68.91;99649.05;4190437;83;21079;-78
2021/06/13 21:12:55;;;;;;;8.93;4.00;;;;;;;12.55;68.92;99632.80;4183895;83;21090;-78
2021/06/13 21:19:11;;;;;;;7.83;3.00;;;;;;;12.57;69.23;99645.56;4150643;84;21021;-78
2021/06/13 21:25:15;;;;;;;6.63;2.93;;;;;;;12.61;69.19;99653.86;4158375;84;21083;-79
2021/06/13 21:31:23;;;;;;;8.00;3.00;;;;;;;12.59;69.47;99647.36;4153224;84;21004;-78
2021/06/13 21:37:27;;;;;;;8.50;3.02;;;;;;;12.58;70.00;99649.91;4159444;84;21079;-80
2021/06/13 21:43:43;;;;;;;8.90;3.00;;;;;;;12.57;69.91;99653.80;4160136;84;21293;-79
2021/06/13 21:49:52;;;;;;;12.43;3.47;;;;;;;12.58;70.18;99650.48;4157021;84;21052;-79
2021/06/13 21:56:08;;;;;;;8.70;3.17;;;;;;;12.59;70.26;99641.09;4158756;84;21095;-79
2021/06/13 22:02:20;;;;;;;9.18;2.83;;;;;;;12.60;70.38;99647.59;4157922;84;21039;-79
2021/06/13 22:08:36;;;;;;;8.20;3.05;;;;;;;12.56;70.62;99659.67;4149595;84;21056;-81
2021/06/13 22:14:40;;;;;;;11.22;3.27;;;;;;;12.57;70.55;99657.92;4158260;84;21071;-79
2021/06/13 22:20:48;;;;;;;11.30;3.77;;;;;;;12.57;70.73;99660.67;4159484;84;21080;-79
2021/06/13 22:26:50;;;;;;;9.45;3.30;;;;;;;12.54;70.92;99657.30;4155036;84;20996;-78
2021/06/13 22:32:51;;;;;;;12.18;3.45;;;;;;;12.48;71.30;99660.16;4155352;84;21099;-79
2021/06/13 22:38:52;;;;;;;11.55;3.75;;;;;;;12.41;71.64;99661.45;4155108;84;21008;-79
2021/06/13 22:44:54;;;;;;;8.20;3.65;;;;;;;12.40;71.77;99667.31;4156068;84;21555;-79
2021/06/13 22:50:58;;;;;;;12.30;3.60;;;;;;;12.42;71.78;99667.70;4155800;84;21063;-79
2021/06/13 22:57:00;;;;;;;7.83;2.90;;;;;;;12.38;72.12;99664.13;4155687;84;21469;-78
2021/06/13 23:03:16;;;;;;;8.80;3.20;;;;;;;12.33;72.50;99666.62;4159963;84;21745;-79
2021/06/13 23:09:28;;;;;;;8.58;4.25;;;;;;;12.30;72.83;99659.70;4158673;84;21079;-78
2021/06/13 23:15:30;;;;;;;9.95;4.17;;;;;;;12.28;73.12;99660.06;4179083;83;21074;-79
2021/06/13 23:21:46;;;;;;;10.68;4.33;;;;;;;12.24;73.52;99661.98;4186642;83;21063;-79
2021/06/13 23:27:54;;;;;;;10.08;3.98;;;;;;;12.24;73.84;99661.98;4191583;83;21031;-78
2021/06/13 23:33:59;;;;;;;13.05;4.70;;;;;;;12.14;74.05;99654.37;4191547;83;21499;-77
2021/06/13 23:40:03;;;;;;;13.30;4.72;;;;;;;12.10;74.46;99654.91;4191475;83;21080;-77
2021/06/13 23:46:15;;;;;;;16.67;5.42;;;;;;;12.05;74.94;99647.55;4186123;83;21046;-78
2021/06/13 23:52:19;;;;;;;14.43;6.33;;;;;;;12.06;75.24;99643.64;4190941;83;21103;-78
2021/06/13 23:58:23;;;;;;;11.60;5.15;;;;;;;12.04;75.62;99641.86;4189462;83;21114;-76
